Portada
METAR-TAF:

METAR-TAF

Aeroports :

Harbin, Xina

latitud: 45-45N, longitud: 126-46E, altitud: 143 m

Observació

L'informe es va fer fa 20 minuts, a les 07:00 UTC
Vent 21 kt del Sud-Oest
Temperatura 11°C
Humitat 19%
Pressió 1015 hPa
Visibilitat 10 km o més
sense núvols per sota de 1500 mi sense presència de cumulonimbus.

METAR: ZYHB 230700Z 23011MPS CAVOK 11/M12 Q1015 NOSIG

Hora: 15:20 (07:20 UTC)

Pronòstic

L'informe es va fer fa 4 hores i 10 minuts, a les 03:10 UTC
Pronòstic vàlid del 23 a les 06 UTC al 24 a les 06 UTC
Vent 16 kt del Oest/Sud-Oest amb ràfegues de 31 kt
Visibilitat: 6000 m

TAF: ZYHB 230310Z 2306/2406 24008G16MPS 6000 NSC TX09/2307Z TNM04/21Z

Observacions i pronòstics meteorològics de més de 4000 aeroports (METAR i TAF).

Les estacions disponibles són els punts grocs i vermells al mapa.

Posi el ratolí al punt desitjat per veure el nom de l'estació.

Feu clic per veure les observacions i els pronòstics meteorològics.

Per canviar el mapa: feu clic els botons verds amb una creu de color negre per apropar; al botó verd amb un guió per allunyar la imatge; o en les fletxes verdes per a mapes adjacents.


METAR-TAF: